createdAt,value
2018-11-04T00:01:57.430Z,6.00
2018-11-04T00:04:25.437Z,6.00
2018-11-04T00:06:53.489Z,6.00
2018-11-04T00:09:21.575Z,5.90
2018-11-04T00:14:24.401Z,6.00
2018-11-04T00:16:52.487Z,6.00
2018-11-04T00:19:20.490Z,6.00
2018-11-04T00:21:48.542Z,6.00
2018-11-04T00:24:16.594Z,6.10
2018-11-04T00:26:44.733Z,6.10
2018-11-04T00:29:12.742Z,6.20
2018-11-04T00:31:40.802Z,6.10
2018-11-04T00:34:08.805Z,6.20
2018-11-04T00:36:36.849Z,6.20
2018-11-04T00:39:06.824Z,6.30
2018-11-04T00:41:34.878Z,6.20
2018-11-04T00:44:03.029Z,6.30
2018-11-04T00:46:31.042Z,6.30
2018-11-04T00:48:59.088Z,6.20
2018-11-04T00:51:27.090Z,6.20
2018-11-04T00:53:55.122Z,6.30
2018-11-04T00:56:23.272Z,6.30
2018-11-04T00:58:51.275Z,6.30
2018-11-04T01:01:19.329Z,6.40
2018-11-04T01:03:47.367Z,6.50
2018-11-04T01:06:15.385Z,6.70
2018-11-04T01:08:43.493Z,6.80
2018-11-04T01:11:11.447Z,6.90
2018-11-04T01:13:39.751Z,6.90
2018-11-04T01:16:07.759Z,6.90
2018-11-04T01:18:35.826Z,6.80
2018-11-04T01:21:03.890Z,6.80
2018-11-04T01:23:32.196Z,6.90
2018-11-04T01:26:00.207Z,7.00
2018-11-04T01:28:28.209Z,7.00
2018-11-04T01:30:56.242Z,7.00
2018-11-04T01:33:24.298Z,6.90
2018-11-04T01:35:52.367Z,6.90
2018-11-04T01:38:20.491Z,7.00
2018-11-04T01:40:48.802Z,6.90
2018-11-04T01:43:16.862Z,7.10
2018-11-04T01:45:44.886Z,7.10
2018-11-04T01:48:12.955Z,7.10
2018-11-04T01:50:40.971Z,7.10
2018-11-04T01:53:09.005Z,7.20
2018-11-04T01:55:37.289Z,7.20
2018-11-04T01:58:05.383Z,7.30
2018-11-04T02:00:33.454Z,7.30
2018-11-04T02:03:01.499Z,7.40
2018-11-04T02:05:29.530Z,7.40
2018-11-04T02:07:57.560Z,7.40
2018-11-04T02:10:25.608Z,7.40
2018-11-04T02:12:53.614Z,7.40
2018-11-04T02:15:21.620Z,7.40
2018-11-04T02:17:49.747Z,7.40
2018-11-04T02:20:17.746Z,7.40
2018-11-04T02:22:45.909Z,7.40
2018-11-04T02:25:14.503Z,7.40
2018-11-04T02:27:43.406Z,7.40
2018-11-04T02:30:14.865Z,7.40
2018-11-04T02:32:43.764Z,7.50
2018-11-04T02:35:12.170Z,7.50
2018-11-04T02:37:40.997Z,7.60
2018-11-04T02:40:09.178Z,7.60
2018-11-04T02:42:37.426Z,7.50
2018-11-04T02:45:06.048Z,7.50
2018-11-04T02:47:34.052Z,7.50
2018-11-04T02:50:02.102Z,7.50
2018-11-04T02:52:30.134Z,7.50
2018-11-04T02:54:58.141Z,7.50
2018-11-04T02:57:26.138Z,7.40
2018-11-04T02:59:54.174Z,7.40
2018-11-04T03:02:22.328Z,7.50
2018-11-04T03:04:50.373Z,7.60
2018-11-04T03:07:18.490Z,7.60
2018-11-04T03:09:46.491Z,7.60
2018-11-04T03:12:14.559Z,7.50
2018-11-04T03:14:42.562Z,7.50
2018-11-04T03:17:10.606Z,7.40
2018-11-04T03:19:38.619Z,7.40
2018-11-04T03:22:06.994Z,7.40
2018-11-04T03:24:35.196Z,7.50
2018-11-04T03:27:03.366Z,7.50
2018-11-04T03:29:31.760Z,7.50
2018-11-04T03:31:59.768Z,7.40
2018-11-04T03:34:27.777Z,7.50
2018-11-04T03:36:55.824Z,7.50
2018-11-04T03:39:23.897Z,7.50
2018-11-04T03:41:52.287Z,7.50
2018-11-04T03:44:20.289Z,7.50
2018-11-04T03:46:48.345Z,7.50
2018-11-04T03:49:16.429Z,7.50
2018-11-04T03:51:44.438Z,7.50
2018-11-04T03:54:13.038Z,7.50
2018-11-04T03:56:41.093Z,7.50
2018-11-04T03:59:09.127Z,7.50
2018-11-04T04:01:37.429Z,7.50
2018-11-04T04:04:05.570Z,7.50
2018-11-04T04:06:33.569Z,7.60
2018-11-04T04:09:02.029Z,7.60
2018-11-04T04:11:30.069Z,7.50
2018-11-04T04:13:58.178Z,7.50
2018-11-04T04:16:26.225Z,7.50
2018-11-04T04:18:54.226Z,7.50
2018-11-04T04:21:22.244Z,7.60
2018-11-04T04:23:50.640Z,7.60
2018-11-04T04:26:18.642Z,7.60
2018-11-04T04:28:46.715Z,7.60
2018-11-04T04:31:15.099Z,7.70
2018-11-04T04:33:43.098Z,7.70
2018-11-04T04:36:11.158Z,7.60
2018-11-04T04:38:39.243Z,7.60
2018-11-04T04:41:07.326Z,7.60
2018-11-04T04:43:35.415Z,7.70
2018-11-04T04:46:03.458Z,7.70
2018-11-04T04:48:31.462Z,7.70
2018-11-04T04:50:59.569Z,7.80
2018-11-04T04:53:27.615Z,7.80
2018-11-04T04:55:57.070Z,7.90
2018-11-04T04:58:25.148Z,8.00
2018-11-04T05:00:53.937Z,7.80
2018-11-04T05:03:22.554Z,7.90
2018-11-04T05:05:50.626Z,7.90
2018-11-04T05:08:18.630Z,7.90
2018-11-04T05:10:46.695Z,7.90
2018-11-04T05:13:14.730Z,7.90
2018-11-04T05:15:42.861Z,7.90
2018-11-04T05:18:10.878Z,8.00
2018-11-04T05:20:38.909Z,8.10
2018-11-04T05:23:07.322Z,8.10
2018-11-04T05:25:35.328Z,8.10
2018-11-04T05:28:03.365Z,8.10
2018-11-04T05:30:31.478Z,8.20
2018-11-04T05:32:59.520Z,8.20
2018-11-04T05:35:27.535Z,8.20
2018-11-04T05:37:55.624Z,8.30
2018-11-04T05:40:23.706Z,8.20
2018-11-04T05:42:51.786Z,8.20
2018-11-04T05:45:19.882Z,8.10
2018-11-04T05:47:47.882Z,8.10
2018-11-04T05:50:15.911Z,8.10
2018-11-04T05:52:43.918Z,8.10
2018-11-04T05:55:12.010Z,8.10
2018-11-04T05:57:40.091Z,8.10
2018-11-04T06:00:09.303Z,8.20
2018-11-04T06:02:37.396Z,8.20
2018-11-04T06:05:08.963Z,8.30
2018-11-04T06:07:37.342Z,8.20
2018-11-04T06:10:06.254Z,8.30
2018-11-04T06:12:34.426Z,8.30
2018-11-04T06:15:02.580Z,8.40
2018-11-04T06:17:30.606Z,8.50
2018-11-04T06:19:58.642Z,8.50
2018-11-04T06:22:26.662Z,8.50
2018-11-04T06:24:54.707Z,8.50
2018-11-04T06:27:22.765Z,8.50
2018-11-04T06:29:50.814Z,8.40
2018-11-04T06:32:18.858Z,8.40
2018-11-04T06:34:46.979Z,8.40
2018-11-04T06:37:14.969Z,8.40
2018-11-04T06:39:43.050Z,8.40
2018-11-04T06:42:11.156Z,8.50
2018-11-04T06:44:39.198Z,8.50
2018-11-04T06:47:07.261Z,8.60
2018-11-04T06:49:35.285Z,8.60
2018-11-04T06:52:03.331Z,8.70
2018-11-04T06:54:31.374Z,8.70
2018-11-04T06:56:59.433Z,8.80
2018-11-04T06:59:27.522Z,8.90
2018-11-04T07:01:55.614Z,8.90
2018-11-04T07:04:24.914Z,8.90
2018-11-04T07:06:53.109Z,8.90
2018-11-04T07:09:27.770Z,9.00
2018-11-04T07:11:56.238Z,9.00
2018-11-04T07:14:24.249Z,9.10
2018-11-04T07:16:52.301Z,9.20
2018-11-04T07:19:20.698Z,9.30
2018-11-04T07:21:48.778Z,9.30
2018-11-04T07:24:16.778Z,9.30
2018-11-04T07:26:44.818Z,9.40
2018-11-04T07:29:12.826Z,9.40
2018-11-04T07:31:40.873Z,9.40
2018-11-04T07:34:09.002Z,9.40
2018-11-04T07:36:37.030Z,9.40
2018-11-04T07:39:08.748Z,9.50
2018-11-04T07:41:36.782Z,9.60
2018-11-04T07:44:04.984Z,9.70
2018-11-04T07:46:32.933Z,9.70
2018-11-04T07:49:01.013Z,9.70
2018-11-04T07:51:29.111Z,9.70
2018-11-04T07:53:57.153Z,9.70
2018-11-04T07:56:25.190Z,9.70
2018-11-04T07:58:53.197Z,9.70
2018-11-04T08:01:21.233Z,9.80
2018-11-04T08:03:49.270Z,9.90
2018-11-04T08:06:17.315Z,9.80
2018-11-04T08:08:45.355Z,10.00
2018-11-04T08:11:13.742Z,10.00
2018-11-04T08:13:41.946Z,10.00
2018-11-04T08:16:09.905Z,10.10
2018-11-04T08:18:38.298Z,10.10
2018-11-04T08:21:06.406Z,10.10
2018-11-04T08:23:34.390Z,9.90
2018-11-04T08:26:02.443Z,10.00
2018-11-04T08:28:30.451Z,10.10
2018-11-04T08:30:58.634Z,10.10
2018-11-04T08:33:27.018Z,10.10
2018-11-04T08:35:55.098Z,10.20
2018-11-04T08:38:23.186Z,10.10
2018-11-04T08:40:51.238Z,10.10
2018-11-04T08:43:19.322Z,10.20
2018-11-04T08:45:47.503Z,10.20
2018-11-04T08:48:15.522Z,10.30
2018-11-04T08:50:43.569Z,10.30
2018-11-04T08:53:11.849Z,10.10
2018-11-04T08:55:40.078Z,10.00
2018-11-04T08:58:08.163Z,10.10
2018-11-04T09:00:36.218Z,10.10
2018-11-04T09:03:04.254Z,10.10
2018-11-04T09:05:32.675Z,10.20
2018-11-04T09:08:00.790Z,10.30
2018-11-04T09:10:28.893Z,10.40
2018-11-04T09:12:56.980Z,10.30
2018-11-04T09:15:25.366Z,10.40
2018-11-04T09:17:53.546Z,10.50
2018-11-04T09:20:21.566Z,10.60
2018-11-04T09:22:49.717Z,10.70
2018-11-04T09:25:17.805Z,10.60
2018-11-04T09:27:45.868Z,10.60
2018-11-04T09:30:15.297Z,10.70
2018-11-04T09:32:43.358Z,10.60
2018-11-04T09:35:14.486Z,10.80
2018-11-04T09:37:43.360Z,10.70
2018-11-04T09:40:13.271Z,10.80
2018-11-04T09:42:41.472Z,10.70
2018-11-04T09:45:10.301Z,10.60
2018-11-04T09:47:39.476Z,10.70
2018-11-04T09:50:09.070Z,10.80
2018-11-04T09:52:37.118Z,10.90
2018-11-04T09:55:06.114Z,10.90
2018-11-04T09:57:34.217Z,10.80
2018-11-04T10:00:02.660Z,10.80
2018-11-04T10:02:30.940Z,10.70
2018-11-04T10:04:58.996Z,10.70
2018-11-04T10:07:27.117Z,10.70
2018-11-04T10:09:55.504Z,10.90
2018-11-04T10:12:23.894Z,10.90
2018-11-04T10:14:52.574Z,11.00
2018-11-04T10:17:20.666Z,10.90
2018-11-04T10:19:48.931Z,10.90
2018-11-04T10:22:16.777Z,10.80
2018-11-04T10:24:45.092Z,10.90
2018-11-04T10:27:13.134Z,10.90
2018-11-04T10:29:41.201Z,10.90
2018-11-04T10:32:09.305Z,11.00
2018-11-04T10:34:37.338Z,11.10
2018-11-04T10:37:06.065Z,11.20
2018-11-04T10:39:34.167Z,11.10
2018-11-04T10:42:02.214Z,11.10
2018-11-04T10:44:30.329Z,11.10
2018-11-04T10:46:58.344Z,11.10
2018-11-04T10:49:26.434Z,11.00
2018-11-04T10:51:56.566Z,11.00
2018-11-04T10:54:24.626Z,10.90
2018-11-04T10:56:53.583Z,11.10
2018-11-04T10:59:21.670Z,11.10
2018-11-04T11:01:49.692Z,11.10
2018-11-04T11:04:17.829Z,11.10
2018-11-04T11:06:46.010Z,11.10
2018-11-04T11:09:14.254Z,11.10
2018-11-04T11:11:42.262Z,11.10
2018-11-04T11:14:10.519Z,11.10
2018-11-04T11:16:38.578Z,11.00
2018-11-04T11:19:06.727Z,10.90
2018-11-04T11:21:35.039Z,11.00
2018-11-04T11:24:03.123Z,11.10
2018-11-04T11:26:31.260Z,11.30
2018-11-04T11:28:59.339Z,11.20
2018-11-04T11:31:28.434Z,11.00
2018-11-04T11:33:56.634Z,11.10
2018-11-04T11:36:24.760Z,11.30
2018-11-04T11:38:52.853Z,11.30
2018-11-04T11:41:33.143Z,11.10
2018-11-04T11:44:01.251Z,11.00
2018-11-04T11:46:29.330Z,10.90
2018-11-04T11:48:57.390Z,10.80
2018-11-04T11:51:25.704Z,11.00
2018-11-04T11:53:53.767Z,11.10
2018-11-04T11:56:22.853Z,11.00
2018-11-04T11:58:50.950Z,11.00
2018-11-04T12:01:19.002Z,11.10
2018-11-04T12:03:47.122Z,11.10
2018-11-04T12:06:15.202Z,11.10
2018-11-04T12:08:43.258Z,11.10
2018-11-04T12:11:11.362Z,11.30
2018-11-04T12:13:39.787Z,11.30
2018-11-04T12:16:07.964Z,11.30
2018-11-04T12:18:35.983Z,11.40
2018-11-04T12:21:05.263Z,11.50
2018-11-04T12:23:33.318Z,11.50
2018-11-04T12:26:01.331Z,11.40
2018-11-04T12:28:29.410Z,11.30
2018-11-04T12:30:57.431Z,11.30
2018-11-04T12:33:25.577Z,11.30
2018-11-04T12:35:53.667Z,11.20
2018-11-04T12:38:21.734Z,11.20
2018-11-04T12:40:49.805Z,11.10
2018-11-04T12:43:17.849Z,11.20
2018-11-04T12:45:46.017Z,11.10
2018-11-04T12:48:14.066Z,11.10
2018-11-04T12:50:43.258Z,11.00
2018-11-04T12:53:11.371Z,11.00
2018-11-04T12:55:39.498Z,10.90
2018-11-04T12:58:07.634Z,10.90
2018-11-04T13:00:35.725Z,11.10
2018-11-04T13:03:04.121Z,10.90
2018-11-04T13:05:32.190Z,10.90
2018-11-04T13:08:00.282Z,11.00
2018-11-04T13:10:28.395Z,11.10
2018-11-04T13:12:56.415Z,11.00
2018-11-04T13:15:24.550Z,11.20
2018-11-04T13:17:52.673Z,11.20
2018-11-04T13:20:20.838Z,11.00
2018-11-04T13:22:48.898Z,10.90
2018-11-04T13:25:16.926Z,10.90
2018-11-04T13:27:44.990Z,11.00
2018-11-04T13:30:14.190Z,11.00
2018-11-04T13:32:42.264Z,10.90
2018-11-04T13:35:10.754Z,10.80
2018-11-04T13:37:38.844Z,10.80
2018-11-04T13:40:08.372Z,10.90
2018-11-04T13:42:36.758Z,10.90
2018-11-04T13:45:05.038Z,10.90
2018-11-04T13:47:33.234Z,11.00
2018-11-04T13:50:01.301Z,11.00
2018-11-04T13:52:29.360Z,11.00
2018-11-04T13:54:57.411Z,10.90
2018-11-04T13:57:25.432Z,10.90
2018-11-04T13:59:53.494Z,11.00
2018-11-04T14:02:21.594Z,11.00
2018-11-04T14:04:49.647Z,11.00
2018-11-04T14:07:17.675Z,10.90
2018-11-04T14:09:45.714Z,11.00
2018-11-04T14:12:13.734Z,10.90
2018-11-04T14:14:41.779Z,11.00
2018-11-04T14:17:09.797Z,11.00
2018-11-04T14:19:37.846Z,11.00
2018-11-04T14:22:05.874Z,11.10
2018-11-04T14:24:33.936Z,11.00
2018-11-04T14:27:02.371Z,11.10
2018-11-04T14:29:30.380Z,11.00
2018-11-04T14:31:58.502Z,11.00
2018-11-04T14:34:26.553Z,11.10
2018-11-04T14:36:54.606Z,11.00
2018-11-04T14:39:22.617Z,11.10
2018-11-04T14:41:50.669Z,11.10
2018-11-04T14:44:18.874Z,11.00
2018-11-04T14:46:46.892Z,11.10
2018-11-04T14:49:14.907Z,11.10
2018-11-04T14:51:42.982Z,11.10
2018-11-04T14:54:11.028Z,11.10
2018-11-04T14:56:39.323Z,11.20
2018-11-04T14:59:07.353Z,11.20
2018-11-04T15:01:35.528Z,11.20
2018-11-04T15:04:03.533Z,11.10
2018-11-04T15:06:31.538Z,11.10
2018-11-04T15:08:59.673Z,11.00
2018-11-04T15:11:28.170Z,11.10
2018-11-04T15:13:56.191Z,11.10
2018-11-04T15:16:24.400Z,11.00
2018-11-04T15:18:52.643Z,10.90
2018-11-04T15:21:20.574Z,11.00
2018-11-04T15:23:48.592Z,11.00
2018-11-04T15:26:16.681Z,11.00
2018-11-04T15:28:44.668Z,10.90
2018-11-04T15:31:12.690Z,11.00
2018-11-04T15:33:40.836Z,10.90
2018-11-04T15:36:08.890Z,10.90
2018-11-04T15:38:36.982Z,10.80
2018-11-04T15:41:05.453Z,10.80
2018-11-04T15:43:33.485Z,10.80
2018-11-04T15:46:03.503Z,10.80
2018-11-04T15:48:31.570Z,10.80
2018-11-04T15:50:59.780Z,10.80
2018-11-04T15:53:27.793Z,10.80
2018-11-04T15:55:55.838Z,10.90
2018-11-04T15:58:23.955Z,10.90
2018-11-04T16:00:51.969Z,10.90
2018-11-04T16:03:20.046Z,10.90
2018-11-04T16:05:48.139Z,10.90
2018-11-04T16:08:16.131Z,10.90
2018-11-04T16:10:44.178Z,11.10
2018-11-04T16:13:12.230Z,11.10
2018-11-04T16:15:40.245Z,11.20
2018-11-04T16:18:08.470Z,11.10
2018-11-04T16:20:36.549Z,11.20
2018-11-04T16:23:04.902Z,11.10
2018-11-04T16:25:33.048Z,11.10
2018-11-04T16:28:01.058Z,11.10
2018-11-04T16:30:29.070Z,11.10
2018-11-04T16:32:57.127Z,11.10
2018-11-04T16:35:25.134Z,11.10
2018-11-04T16:37:53.313Z,11.20
2018-11-04T16:40:21.367Z,11.20
2018-11-04T16:42:49.378Z,11.10
2018-11-04T16:45:17.413Z,11.00
2018-11-04T16:47:45.842Z,11.10
2018-11-04T16:50:14.691Z,11.20
2018-11-04T16:52:43.423Z,11.10
2018-11-04T16:55:12.486Z,11.10
2018-11-04T16:57:40.554Z,11.10
2018-11-04T17:00:09.421Z,11.00
2018-11-04T17:02:37.950Z,11.10
2018-11-04T17:05:06.839Z,11.10
2018-11-04T17:07:34.830Z,11.10
2018-11-04T17:10:02.985Z,11.10
2018-11-04T17:12:31.064Z,11.20
2018-11-04T17:14:59.073Z,11.30
2018-11-04T17:17:27.134Z,11.30
2018-11-04T17:19:55.150Z,11.30
2018-11-04T17:22:23.461Z,11.30
2018-11-04T17:24:51.572Z,11.30
2018-11-04T17:27:19.589Z,11.20
2018-11-04T17:29:47.641Z,11.10
2018-11-04T17:32:15.654Z,11.20
2018-11-04T17:34:43.705Z,11.20
2018-11-04T17:37:11.766Z,11.30
2018-11-04T17:39:39.772Z,11.30
2018-11-04T17:42:07.811Z,11.30
2018-11-04T17:44:36.007Z,11.20
2018-11-04T17:47:04.025Z,11.20
2018-11-04T17:49:32.125Z,11.10
2018-11-04T17:52:00.173Z,11.20
2018-11-04T17:54:28.223Z,11.10
2018-11-04T17:56:56.271Z,11.00
2018-11-04T17:59:24.330Z,11.00
2018-11-04T18:01:52.416Z,11.00
2018-11-04T18:04:20.477Z,11.00
2018-11-04T18:06:48.495Z,11.10
2018-11-04T18:09:16.554Z,11.10
2018-11-04T18:11:44.981Z,11.20
2018-11-04T18:14:12.992Z,11.20
2018-11-04T18:16:41.001Z,11.10
2018-11-04T18:19:09.074Z,11.10
2018-11-04T18:21:37.180Z,11.20
2018-11-04T18:24:05.208Z,11.20
2018-11-04T18:26:33.347Z,11.10
2018-11-04T18:29:01.298Z,10.90
2018-11-04T18:31:29.309Z,11.10
2018-11-04T18:33:57.384Z,11.20
2018-11-04T18:36:25.429Z,11.10
2018-11-04T18:38:53.442Z,11.10
2018-11-04T18:41:21.510Z,11.10
2018-11-04T18:43:49.794Z,11.10
2018-11-04T18:46:17.617Z,11.00
2018-11-04T18:48:45.641Z,10.90
2018-11-04T18:51:13.857Z,10.90
2018-11-04T18:53:41.983Z,10.90
2018-11-04T18:56:09.982Z,11.00
2018-11-04T18:58:38.051Z,10.90
2018-11-04T19:01:06.166Z,11.00
2018-11-04T19:03:34.164Z,11.00
2018-11-04T19:06:02.262Z,10.90
2018-11-04T19:08:30.301Z,11.00
2018-11-04T19:10:58.391Z,10.90
2018-11-04T19:13:26.369Z,10.90
2018-11-04T19:15:54.463Z,11.00
2018-11-04T19:18:22.542Z,11.00
2018-11-04T19:20:50.558Z,11.10
2018-11-04T19:23:18.657Z,10.90
2018-11-04T19:25:46.671Z,10.90
2018-11-04T19:28:14.815Z,10.90
2018-11-04T19:30:42.847Z,10.90
2018-11-04T19:33:10.893Z,11.00
2018-11-04T19:35:38.954Z,11.00
2018-11-04T19:38:06.975Z,11.00
2018-11-04T19:40:34.987Z,11.00
2018-11-04T19:43:03.151Z,10.90
2018-11-04T19:45:31.177Z,10.90
2018-11-04T19:47:59.241Z,10.80
2018-11-04T19:50:27.401Z,10.80
2018-11-04T19:52:55.514Z,10.80
2018-11-04T19:55:23.566Z,10.80
2018-11-04T19:57:51.577Z,10.80
2018-11-04T20:00:19.587Z,10.80
2018-11-04T20:02:47.902Z,10.90
2018-11-04T20:05:15.959Z,11.00
2018-11-04T20:07:43.946Z,11.00
2018-11-04T20:10:16.410Z,11.00
2018-11-04T20:13:47.821Z,10.90
2018-11-04T20:16:15.875Z,10.90
2018-11-04T20:18:49.325Z,10.90
2018-11-04T20:21:17.417Z,10.90
2018-11-04T20:23:45.493Z,10.90
2018-11-04T20:26:15.378Z,11.00
2018-11-04T20:28:43.448Z,10.90
2018-11-04T20:31:15.887Z,10.90
2018-11-04T20:33:44.059Z,11.00
2018-11-04T20:36:12.085Z,11.00
2018-11-04T20:38:45.683Z,11.00
2018-11-04T20:41:19.249Z,11.20
2018-11-04T20:43:47.626Z,11.20
2018-11-04T20:46:15.706Z,11.30
2018-11-04T20:48:49.285Z,11.30
2018-11-04T20:51:17.386Z,11.20
2018-11-04T20:53:45.529Z,11.20
2018-11-04T20:56:18.829Z,11.20
2018-11-04T20:58:46.862Z,11.30
2018-11-04T21:01:14.918Z,11.30
2018-11-04T21:03:42.997Z,11.30
2018-11-04T21:06:11.153Z,11.40
2018-11-04T21:08:39.520Z,11.30
2018-11-04T21:11:07.489Z,11.30
2018-11-04T21:13:35.497Z,11.30
2018-11-04T21:16:03.667Z,11.30
2018-11-04T21:18:31.609Z,11.20
2018-11-04T21:20:59.631Z,11.30
2018-11-04T21:23:27.669Z,11.30
2018-11-04T21:25:55.686Z,11.40
2018-11-04T21:28:23.891Z,11.20
2018-11-04T21:30:52.185Z,11.30
2018-11-04T21:33:20.251Z,11.20
2018-11-04T21:35:48.328Z,11.20
2018-11-04T21:38:16.378Z,11.10
2018-11-04T21:40:44.433Z,11.10
2018-11-04T21:43:12.672Z,11.20
2018-11-04T21:45:40.494Z,11.30
2018-11-04T21:48:08.571Z,11.30
2018-11-04T21:50:36.594Z,11.30
2018-11-04T21:53:04.840Z,11.30
2018-11-04T21:55:33.157Z,11.40
2018-11-04T21:58:00.980Z,11.40
2018-11-04T22:00:28.992Z,11.40
2018-11-04T22:02:57.240Z,11.30
2018-11-04T22:05:25.360Z,11.30
2018-11-04T22:07:53.377Z,11.30
2018-11-04T22:10:21.424Z,11.20
2018-11-04T22:12:49.458Z,11.10
2018-11-04T22:15:17.489Z,10.90
2018-11-04T22:17:45.545Z,11.00
2018-11-04T22:20:13.625Z,11.00
2018-11-04T22:22:41.710Z,11.00
2018-11-04T22:25:10.950Z,11.00
2018-11-04T22:27:38.997Z,11.10
2018-11-04T22:30:08.350Z,11.10
2018-11-04T22:32:36.783Z,11.20
2018-11-04T22:35:05.142Z,11.30
2018-11-04T22:37:33.226Z,11.40
2018-11-04T22:40:01.306Z,11.50
2018-11-04T22:42:29.374Z,11.40
2018-11-04T22:44:57.474Z,11.30
2018-11-04T22:47:25.490Z,11.30
2018-11-04T22:49:53.538Z,11.30
2018-11-04T22:52:21.600Z,11.30
2018-11-04T22:54:49.622Z,11.20
2018-11-04T22:57:17.696Z,11.20
2018-11-04T22:59:46.124Z,11.20
2018-11-04T23:02:14.117Z,11.30
2018-11-04T23:04:47.770Z,11.40
2018-11-04T23:07:15.869Z,11.50
2018-11-04T23:09:43.895Z,11.50
2018-11-04T23:12:11.945Z,11.50
2018-11-04T23:14:39.960Z,11.40
2018-11-04T23:17:08.079Z,11.40
2018-11-04T23:19:36.132Z,11.50
2018-11-04T23:22:04.189Z,11.50
2018-11-04T23:24:32.250Z,11.50
2018-11-04T23:27:00.391Z,11.50
2018-11-04T23:29:28.719Z,11.40
2018-11-04T23:31:56.783Z,11.30
2018-11-04T23:34:24.809Z,11.20
2018-11-04T23:36:52.852Z,11.30
2018-11-04T23:39:20.867Z,11.30
2018-11-04T23:41:48.888Z,11.30
2018-11-04T23:44:16.934Z,11.50
2018-11-04T23:46:46.187Z,11.50
2018-11-04T23:49:14.290Z,11.40
2018-11-04T23:51:42.321Z,11.40
2018-11-04T23:54:10.739Z,11.50
2018-11-04T23:56:38.845Z,11.50
2018-11-04T23:59:06.914Z,11.40
